Mamuka Mikautadze

Recruteur en chef - Dinamo Tbilisi
21 Oct 2027
Jeudi
Processus

Personnalité

Adaptabilité (6) Ambition (7) Controverse (12) Loyauté (20) Pression (5) Professionnalisme (12) Sportivité (1) Tempérament (4)

Profil

Style d'entraînement Démocratique
Diplôme National B
Détermination 9
Gestion des joueurs 4
Motivation 11
Discipline 8
Satisfaction professionnelle
86%
Fatigue
0%
Rôle Recruteur en chef
Salaire 24.5K p/s
Contrat 14.03.2028

Performance

Comportement Bon
Efficacité de l'entraînement
30%
Développement des joueurs
45%
Prévention des blessures
30%
Mise en place tactique
45%

Événements récents

A évalué un joueur maintenant
A participé à une réunion de recrutement 7j
A évalué un joueur 7j
A évalué un joueur 7j
A évalué un joueur 7j
A évalué un joueur 7j
A évalué un joueur 7j
A évalué un joueur 14j

Suivi en cours

189
Joueur Club Statut Capacité Confiance Observé Dernière observation Dernier vote
Luis Olivera Defensores Unidos Actif 120 / 110 40% 2 18.10.2027 -
Juan Rocca Gimnasia y Tiro Actif 105 / 114 40% 3 18.10.2027 -
Gonzalo Gamarra Defensores Actif 97 / 103 40% 1 18.10.2027 -
Fernando Duré Estudiantes Actif 117 / 104 40% 1 18.10.2027 -
Facundo Altamira Godoy Cruz Actif 134 / 125 40% 5 17.10.2027 -
Juan Infante Atlético Tucumán Actif 131 / 125 40% 1 17.10.2027 -
Facundo Ardiles Estudiantes Actif 112 / 105 40% 4 15.10.2027 -
Facundo Nadalín San Martín SJ Actif 128 / 114 40% 2 15.10.2027 -
Enzo Silcan Almagro Actif 115 / 107 40% 1 15.10.2027 -
Martín Vallejos Quilmes Actif 110 / 112 40% 2 14.10.2027 -
Elías Calderón Central Norte Actif 102 / 107 40% 1 14.10.2027 -
Gastón Moreyra Almirante Brown Actif 109 / 120 40% 3 13.10.2027 -
Lucas Souto Defensa y Justicia Actif 137 / 120 40% 1 13.10.2027 -
Iñaki Larthirigoyen San Telmo Actif 112 / 120 40% 6 10.10.2027 -
Carlos Cantillo Jaguares Actif 107 / 118 40% 2 10.10.2027 -
Matías Viguet Maipú Actif 104 / 108 40% 3 09.10.2027 -
Santiago Sala Güemes Actif 117 / 114 40% 2 06.10.2027 -
Elías Contreras Morón Actif 102 / 114 40% 2 05.10.2027 -
Valentín Serrano Arsenal Actif 105 / 108 40% 3 05.10.2027 -
Facundo Taborda Racing Actif 114 / 112 40% 3 05.10.2027 -
Guillermo Enrique Huracán Actif 116 / 119 40% 1 05.10.2027 -
Duvan Rangel La Equidad Actif 126 / 134 40% 5 03.10.2027 -
Matías Machado Racing Actif 103 / 119 40% 3 03.10.2027 -
Tomás Ramírez Morón Actif 106 / 115 40% 1 01.10.2027 -
Diogo Guzmán Montevideo City Torque Actif 111 / 119 40% 2 30.09.2027 -
Maximiliano Rueda Patronato Actif 104 / 110 40% 2 29.09.2027 -
Facundo Heredia Patronato Actif 122 / 104 40% 3 29.09.2027 -
Fabricio Rojas Gimnasia y Tiro Actif 125 / 108 40% 7 28.09.2027 -
Brian Orosco Godoy Cruz Actif 116 / 116 40% 5 27.09.2027 -
Matías Sosa Arsenal Actif 124 / 115 40% 2 25.09.2027 -
Federico Bisanz Atlanta Actif 124 / 112 40% 2 23.09.2027 -
Enzo Avaro Odd Actif 131 / 109 40% 1 23.09.2027 -
Esteban da Silva Racing Actif 107 / 110 40% 2 21.09.2027 -
Lucas Carrizo Plaza Colonia Actif 106 / 109 40% 3 19.09.2027 -
Gianluca Pugliese Güemes Actif 115 / 114 40% 2 16.09.2027 -
Ignacio Vallejos Colegiales Actif 115 / 116 40% 1 16.09.2027 -
Santiago López García Banfield Actif 121 / 123 40% 2 15.09.2027 -
Andres Lioi Chaco For Ever Actif 116 / 103 40% 1 14.09.2027 -
Enzo Acosta Estudiantes Actif 114 / 104 40% 1 13.09.2027 -
Johan Campaña Patriotas Actif 99 / 108 40% 1 07.09.2027 -
Daniel González Universidad Catolica Actif 113 / 125 40% 1 05.09.2027 -
Santiago Corbo Miramar Misiones Actif 102 / 100 40% 1 05.09.2027 -
Roger Manríque Zulia Actif 99 / 101 40% 1 03.09.2027 -
Leonardo Borja La Equidad Actif 157 / 151 40% 1 03.09.2027 -
Rodrigo Ramírez Nueva Chicago Actif 120 / 109 40% 1 02.09.2027 -
Federico Recalde Madryn Actif 118 / 112 40% 3 31.08.2027 -
Serginho Al Wasl Actif 130 / 137 40% 3 30.08.2027 -
Agustín Benítez Defensores Actif 126 / 112 40% 1 30.08.2027 -
Federico Versaci Talleres Actif 118 / 105 40% 3 28.08.2027 -
Isaac Kyereh Liberty Professionals Actif 97 / 115 40% 6 27.08.2027 -
Aron Agüero Maipú Actif 105 / 112 40% 1 27.08.2027 -
Maximiliano Ribero Central Norte Actif 114 / 112 40% 1 26.08.2027 -
Bruno Leyes Godoy Cruz Actif 129 / 123 40% 4 25.08.2027 -
Gonzalo Abrego Godoy Cruz Actif 127 / 125 40% 2 24.08.2027 -
Enzo Trinidad Colegiales Actif 105 / 106 40% 1 24.08.2027 -
Santiago Vera Almirante Brown Actif 116 / 109 40% 1 14.08.2027 -
Ignacio Abraham Banfield Actif 122 / 116 40% 1 11.08.2027 -
Santiago Kubiszyn Morón Actif 104 / 119 40% 1 10.08.2027 -
Fernando Bersano Madryn Actif 107 / 109 40% 2 06.08.2027 -
Irakli Yegoian Excelsior Actif 130 / 120 40% 2 05.08.2027 -
Augusto Berrondo Tristán Suárez Actif 100 / 107 40% 3 05.08.2027 -
Walter Juárez Güemes Actif 114 / 104 40% 1 05.08.2027 -
Lautaro Disanto Defensores Unidos Actif 107 / 114 40% 1 02.08.2027 -
Julián Palacios Unión de Santa Fe Actif 122 / 120 40% 1 01.08.2027 -
Louis Thompson Stevenage Actif 122 / 106 40% 6 31.07.2027 -
Taylor Allen Wycombe Wanderers Actif 117 / 117 40% 3 31.07.2027 -
Martín García Atlanta Actif 118 / 107 40% 1 31.07.2027 -
Antonis Siatounis Potenza Actif 120 / 106 40% 1 28.07.2027 -
David Veliz Güemes Actif 115 / 116 40% 1 28.07.2027 -
Rodrigo Melo Estudiantes Actif 110 / 123 40% 1 27.07.2027 -
Facundo Castelli Estudiantes Actif 113 / 121 40% 1 20.07.2027 -
Lisandro Cabrera Maipú Actif 114 / 107 40% 1 19.07.2027 -
Destiny Efosa Egharevba Picerno Actif 114 / 102 40% 1 19.07.2027 -
Ramón González Almirante Brown Actif 104 / 119 40% 1 16.07.2027 -
Josué Colmán Nacional Actif 103 / 110 40% 1 14.07.2027 -
Milson Al Jazira Actif 138 / 131 40% 1 14.07.2027 -
Edarlyn Reyes Arsenal Tula Actif 111 / 112 40% 4 13.07.2027 -
Rafael Santos Borré Torino Actif 146 / 143 40% 1 10.07.2027 -
Giuseppe Guadagni Picerno Actif 90 / 113 40% 2 08.07.2027 -
Brian Fernández Banfield Actif 109 / 113 40% 1 02.07.2027 -
Eren Aydın Zira Actif 99 / 109 40% 2 29.06.2027 -
Luca Martínez Dupuy Godoy Cruz Actif 113 / 115 40% 1 29.06.2027 -
Georgy Melkadze Akhmat Grozny Actif 118 / 116 40% 2 28.06.2027 -
Vladislav Sarveli Nizhniy Novgorod Actif 117 / 113 40% 2 27.06.2027 -
Jhonatan Candia Barracas Central Actif 114 / 122 40% 1 26.06.2027 -
Slobodan Tedić Akron Actif 105 / 108 40% 1 24.06.2027 -
Santiago Apa All Boys Actif 120 / 105 40% 1 24.06.2027 -
Nika Kvaratskhelia Tskhinvali Perdu 88 / 103 48% 1 21.06.2027 -
Vyacheslav Grulev Nizhniy Novgorod Actif 110 / 120 40% 1 21.06.2027 -
Mohammad Alsalkhadi Damac Actif 117 / 109 40% 1 20.06.2027 -
Bandile Shandu Orlando Pirates Perdu 112 / 96 40% 1 18.06.2027 -
Moisés CSKA Moscow Refusé 126 / 134 40% 2 15.06.2027 -
Eldar Ćivić Baltika Actif 112 / 117 40% 6 14.06.2027 -
Simone Iob Siracusa Actif 120 / 116 40% 1 14.06.2027 -
Ítalo Ural Actif 107 / 112 40% 3 30.05.2027 -
Pablo García Gijón Actif 126 / 113 40% 1 30.05.2027 -
Íñigo Racing Santander Actif 131 / 120 40% 1 29.05.2027 -
Edson Real Sociedad Actif 99 / 105 40% 1 29.05.2027 -
Salvatore Pezzella Casertana Actif 86 / 110 40% 2 27.05.2027 -
Darko Todorović Fakel Actif 111 / 109 40% 9 26.05.2027 -
Andy Polar Saburtalo Actif 96 / 113 40% 1 26.05.2027 -
Kerim Çalhanoğlu Gaziantep Actif 114 / 113 40% 3 25.05.2027 -
Ugochukwu Iwu Rubin Actif 131 / 123 40% 3 23.05.2027 -
Sergio Rodelas Granada Actif 103 / 115 40% 1 23.05.2027 -
François Kamano Sochi Actif 111 / 121 40% 1 23.05.2027 -
Kelechi Nwakali Barnsley Actif 108 / 118 40% 1 21.05.2027 -
Salvador Manríquez Dorados Actif 111 / 106 40% 1 21.05.2027 -
Miroslav Bogosavac Akhmat Grozny Actif 129 / 117 40% 4 19.05.2027 -
Pavel Maslov Chaika Actif 102 / 109 40% 3 16.05.2027 -
Daniil Penchikov Arsenal Tula Actif 114 / 107 40% 3 14.05.2027 -
Mingiyan Beveev Baltika Actif 105 / 119 40% 2 14.05.2027 -
Léo Cordeiro Ural Actif 124 / 116 40% 2 14.05.2027 -
Matías Gómez Granada Actif 118 / 116 40% 5 11.05.2027 -
Guilherme Neiva AVS Actif 117 / 98 40% 1 09.05.2027 -
Artem Meschaninov Rodina Actif 104 / 108 40% 1 05.05.2027 -
Josh Dacres-Cogley Stockport County Actif 101 / 101 40% 5 03.05.2027 -
Jordan Gabriel Port Vale Actif 119 / 110 40% 4 24.04.2027 -
Nader Mohammadi Spartak Kostroma Actif 97 / 101 40% 1 24.04.2027 -
Nikita Kakkoev Nizhniy Novgorod Actif 127 / 116 40% 1 22.04.2027 -
Andrey Langovich Rostov Actif 109 / 119 40% 1 21.04.2027 -
Marat Bokoev Akron Actif 118 / 122 40% 1 17.04.2027 -
Gonçalo Oliveira Benfica Actif 103 / 111 40% 2 16.04.2027 -
Gilson Benchimol Akron Actif 117 / 108 40% 1 15.04.2027 -
Soslan Takulov Neftekhimik Actif 106 / 95 40% 1 14.04.2027 -
Sam Gale Gillingham Actif 85 / 115 40% 1 13.04.2027 -
Nikolay Tarasov Spartak Kostroma Actif 92 / 101 40% 1 11.04.2027 -
Ilja Agapov Ufa Actif 124 / 109 40% 2 10.04.2027 -
Houssem Mrezigue Dinamo Makhachkala Actif 108 / 114 40% 2 08.04.2027 -
Yvandro Borges Sanches Heracles Actif 103 / 110 40% 1 08.04.2027 -
Vyacheslav Yakimov Fakel Actif 118 / 104 40% 1 05.04.2027 -
Nathan Gassama Baltika Actif 127 / 113 40% 3 02.04.2027 -
Lucas Olaza Krasnodar Actif 125 / 128 40% 4 01.04.2027 -
Vasily Cherov Ufa Actif 106 / 106 40% 3 24.03.2027 -
Temirkan Sundukov Dinamo Makhachkala Actif 117 / 108 40% 1 16.03.2027 -
Oleg Lanin Shinnik Actif 117 / 106 40% 1 13.03.2027 -
Thabiso Lebitso Orlando Pirates Actif 96 / 111 40% 1 12.03.2027 -
Ilja Zhigulev Chernomorets Actif 103 / 98 40% 1 12.03.2027 -
Kevin Pina Krasnodar Actif 122 / 125 40% 1 11.03.2027 -
Ognjen Bjeličić Hamrun Spartans Actif 103 / 97 40% 1 08.03.2027 -
Jhon Palacios Orenburg Actif 104 / 119 40% 1 06.03.2027 -
Evidence Dala Black Aces Actif 87 / 113 40% 1 05.03.2027 -
Ilja Vakhania Krasnodar Actif 111 / 121 40% 1 04.03.2027 -
Thomas Amang Rubin Actif 104 / 115 40% 1 25.01.2027 -
Yegor Golenkov Rostov Actif 127 / 121 40% 1 14.01.2027 -
Naoufal Bannis Vitesse Actif 89 / 113 40% 1 13.01.2027 -
Arsen Adamov Akhmat Grozny Actif 135 / 116 40% 2 02.01.2027 -
Luka Tsulukidze Dinamo Batumi Actif 119 / 121 48% 1 02.01.2027 -
Anderson Arroyo Rubin Actif 129 / 115 40% 1 02.01.2027 -
Kamran Ramazanov Inter Actif 115 / 110 40% 1 18.12.2026 -
Pedro Bicalho Qarabag Actif 118 / 122 40% 1 17.12.2026 -
Ipalibo Jack Hamrun Spartans Actif 84 / 106 40% 1 16.12.2026 -
Jaïro Riedewald Sheffield United Actif 113 / 127 40% 1 16.12.2026 -
Marko Janković Qarabag Actif 115 / 131 40% 1 11.12.2026 -
Diego Barbosa Toluca Actif 125 / 112 40% 1 10.12.2026 -
Giovanni Cantizano Rosario Central Actif 105 / 126 40% 4 08.12.2026 -
João Simões Sporting CP Actif 110 / 127 40% 3 08.12.2026 -
Deano Van Rooyen Neftchi Actif 119 / 118 40% 1 08.12.2026 -
Jonás Luna Santa Clara Actif 111 / 115 40% 4 21.11.2026 -
Tomás Romero Unión de Santa Fe Actif 93 / 98 40% 1 21.11.2026 -
Stefan Lončar Akron Actif 110 / 109 40% 1 18.11.2026 -
Tomás Aranda Boca Juniors Actif 109 / 124 40% 1 14.11.2026 -
Santiago Sosa Yung Sevilla Actif 128 / 135 40% 2 12.11.2026 -
Keiner Hurtado Alania Actif 67 / 85 40% 1 09.11.2026 -
Cheveyo Tsawa Club Brugge Actif 98 / 129 40% 1 08.11.2026 -
Mateo Aguiar Defensa y Justicia Actif 119 / 121 40% 2 04.11.2026 -
Henrique Carmo Zenit Actif 120 / 127 40% 2 03.11.2026 -
Lautaro Mora Huracán Actif 101 / 107 40% 1 01.11.2026 -
Kai Enslin Charlton Athletic Actif 91 / 97 40% 1 23.10.2026 -
Alexei Dominguez Pachuca Actif 96 / 105 40% 2 21.10.2026 -
Sidiki Chérif Coventry City Actif 131 / 128 40% 1 18.10.2026 -
Lander Astiazarán Real Sociedad Actif 87 / 107 40% 1 13.10.2026 -
Ignacio Ovando Rosario Central Actif 117 / 120 40% 2 12.10.2026 -
Dylan Gorosito Villarreal Actif 89 / 110 40% 2 09.10.2026 -
Nicolas Hurtado La Equidad Actif 114 / 118 40% 1 05.10.2026 -
Mateo Bustamante Tristán Suárez Actif 78 / 100 40% 1 04.10.2026 -
Boniphanseo Phiri Lokomotivi Actif 81 / 75 40% 2 02.10.2026 -
Santiago Grella Unión de Santa Fe Actif 114 / 112 40% 2 02.10.2026 -
Darío Ramírez Real Sociedad Actif 105 / 99 40% 1 29.09.2026 -
Alfie Harrison Newcastle United Actif 111 / 116 40% 1 17.09.2026 -
Julián Nuñez Belgrano Actif 102 / 98 40% 1 14.09.2026 -
José Sifuentes Merani Actif 68 / 89 40% 1 14.09.2026 -
Alejo Gelsomino Gimnasia La Plata Actif 92 / 104 40% 1 12.09.2026 -
Thiago Ponce Rosario Central Actif 94 / 109 40% 1 09.09.2026 -
Tobías Ganduglia Independiente Rivadavia Actif 101 / 99 40% 1 08.09.2026 -
Lucas Silva River Plate Actif 95 / 109 40% 1 31.08.2026 -
Marcos Cuenca Zaragoza Actif 124 / 101 40% 1 24.08.2026 -
Francisco Galván Deportivo Municipal Actif 110 / 104 40% 1 24.08.2026 -
Kristian Eriksen Molde Actif 124 / 129 40% 1 17.08.2026 -
Miguel Ángel Brau Coventry City Actif 88 / 111 40% 1 03.08.2026 -